createdAt,value
2019-01-23T00:01:48.058Z,29.73
2019-01-23T00:04:28.133Z,28.40
2019-01-23T00:07:08.144Z,28.37
2019-01-23T00:09:51.176Z,28.77
2019-01-23T00:12:39.893Z,23.57
2019-01-23T00:15:19.416Z,27.47
2019-01-23T00:17:59.336Z,29.00
2019-01-23T00:20:38.504Z,31.27
2019-01-23T00:23:21.603Z,29.23
2019-01-23T00:26:03.589Z,30.53
2019-01-23T00:28:43.515Z,29.00
2019-01-23T00:31:22.585Z,27.13
2019-01-23T00:34:02.688Z,27.90
2019-01-23T00:36:44.671Z,31.13
2019-01-23T00:39:23.764Z,27.67
2019-01-23T00:42:03.728Z,29.83
2019-01-23T00:44:45.793Z,30.60
2019-01-23T00:47:24.878Z,29.30
2019-01-23T00:50:03.903Z,30.33
2019-01-23T00:52:43.095Z,32.67
2019-01-23T00:55:22.871Z,30.97
2019-01-23T00:58:05.069Z,30.00
2019-01-23T01:00:44.158Z,29.53
2019-01-23T01:03:23.323Z,28.47
2019-01-23T01:06:02.495Z,31.23
2019-01-23T01:08:41.925Z,29.67
2019-01-23T01:11:22.126Z,29.77
2019-01-23T01:14:04.297Z,29.63
2019-01-23T01:16:44.405Z,29.50
2019-01-23T01:19:24.347Z,30.13
2019-01-23T01:22:06.628Z,30.80
2019-01-23T01:24:49.016Z,32.67
2019-01-23T01:27:31.010Z,33.70
2019-01-23T01:30:10.335Z,31.20
2019-01-23T01:32:49.563Z,30.17
2019-01-23T01:35:31.608Z,33.57
2019-01-23T01:38:10.808Z,30.47
2019-01-23T01:40:48.002Z,32.47
2019-01-23T01:43:34.041Z,31.80
2019-01-23T01:46:13.127Z,30.37
2019-01-23T01:48:53.100Z,29.83
2019-01-23T01:51:32.382Z,32.00
2019-01-23T01:54:36.550Z,33.37
2019-01-23T01:57:18.938Z,31.73
2019-01-23T02:02:39.947Z,33.80
2019-01-23T02:05:19.108Z,33.80
2019-01-23T02:07:58.231Z,30.90
2019-01-23T02:10:40.241Z,32.57
2019-01-23T02:13:19.336Z,31.63
2019-01-23T02:15:56.526Z,31.77
2019-01-23T02:18:45.251Z,33.73
2019-01-23T02:21:24.455Z,31.27
2019-01-23T02:24:03.594Z,33.47
2019-01-23T02:26:45.855Z,32.27
2019-01-23T02:29:45.081Z,33.93
2019-01-23T02:32:24.299Z,35.33
2019-01-23T02:35:03.457Z,33.43
2019-01-23T02:37:43.518Z,32.07
2019-01-23T02:40:22.560Z,33.93
2019-01-23T02:43:04.678Z,32.93
2019-01-23T02:45:43.835Z,34.83
2019-01-23T02:48:23.785Z,32.07
2019-01-23T02:51:02.998Z,31.53
2019-01-23T02:53:42.998Z,34.33
2019-01-23T02:56:22.150Z,35.37
2019-01-23T02:59:21.555Z,30.43
2019-01-23T03:02:20.711Z,33.33
2019-01-23T03:05:02.678Z,35.20
2019-01-23T03:07:41.749Z,32.07
2019-01-23T03:10:20.924Z,34.07
2019-01-23T03:13:00.132Z,33.00
2019-01-23T03:15:42.394Z,34.43
2019-01-23T03:18:24.575Z,31.80
2019-01-23T03:21:03.578Z,33.70
2019-01-23T03:23:42.999Z,36.00
2019-01-23T03:26:22.758Z,32.40
2019-01-23T03:29:04.940Z,34.17
2019-01-23T03:31:44.159Z,32.73
2019-01-23T03:34:24.000Z,33.87
2019-01-23T03:37:03.069Z,32.10
2019-01-23T03:40:02.190Z,34.03
2019-01-23T03:42:41.402Z,33.83
2019-01-23T03:45:23.483Z,33.40
2019-01-23T03:48:02.614Z,36.60
2019-01-23T03:50:41.776Z,34.60
2019-01-23T03:53:20.856Z,36.03
2019-01-23T03:56:00.187Z,35.33
2019-01-23T03:58:40.284Z,33.87
2019-01-23T04:01:19.540Z,31.63
2019-01-23T04:04:18.869Z,33.73
2019-01-23T04:07:01.025Z,33.67
2019-01-23T04:09:43.101Z,33.60
2019-01-23T04:12:22.226Z,35.97
2019-01-23T04:15:01.478Z,35.40
2019-01-23T04:17:40.545Z,31.13
2019-01-23T04:20:20.536Z,33.63
2019-01-23T04:22:59.786Z,30.37
2019-01-23T04:25:36.964Z,33.40
2019-01-23T04:28:23.013Z,32.90
2019-01-23T04:31:02.994Z,33.53
2019-01-23T04:33:42.985Z,32.50
2019-01-23T04:36:22.992Z,34.60
2019-01-23T04:39:03.959Z,33.77
2019-01-23T04:41:45.940Z,36.57
2019-01-23T04:44:25.869Z,34.77
2019-01-23T04:47:04.948Z,35.53
2019-01-23T04:49:46.922Z,34.87
2019-01-23T04:52:45.964Z,34.50
2019-01-23T04:55:25.299Z,32.87
2019-01-23T04:58:04.659Z,33.43
2019-01-23T05:00:43.790Z,36.13
2019-01-23T05:03:23.775Z,35.67
2019-01-23T05:05:49.936Z,33.37
2019-01-23T05:08:35.996Z,34.30
2019-01-23T05:11:35.826Z,33.20
2019-01-23T05:14:14.957Z,34.90
2019-01-23T05:16:54.039Z,33.83
2019-01-23T05:19:36.515Z,34.93
2019-01-23T05:22:15.605Z,35.03
2019-01-23T05:24:55.566Z,35.17
2019-01-23T05:27:36.205Z,33.93
2019-01-23T05:30:18.553Z,34.23
2019-01-23T05:33:00.896Z,35.27
2019-01-23T05:35:42.885Z,38.07
2019-01-23T05:38:22.040Z,33.40
2019-01-23T05:41:01.182Z,34.80
2019-01-23T05:43:40.264Z,35.30
2019-01-23T05:46:20.239Z,36.07
2019-01-23T05:48:59.419Z,35.63
2019-01-23T05:51:39.315Z,35.67
2019-01-23T05:54:19.252Z,35.57
2019-01-23T05:56:58.391Z,37.73
2019-01-23T05:59:37.591Z,36.37
2019-01-23T06:02:16.722Z,32.73
2019-01-23T06:04:56.006Z,35.23
2019-01-23T06:07:35.164Z,36.00
2019-01-23T06:10:14.285Z,35.57
2019-01-23T06:12:53.554Z,36.07
2019-01-23T06:15:33.541Z,36.17
2019-01-23T06:18:32.943Z,34.43
2019-01-23T06:21:12.076Z,36.77
2019-01-23T06:23:54.291Z,33.90
2019-01-23T06:26:34.240Z,40.40
2019-01-23T06:29:14.133Z,35.27
2019-01-23T06:31:56.264Z,35.57
2019-01-23T06:34:53.447Z,35.90
2019-01-23T06:37:39.480Z,36.17
2019-01-23T06:40:39.315Z,33.80
2019-01-23T06:43:18.408Z,34.07
2019-01-23T06:45:58.408Z,33.63
2019-01-23T06:48:38.374Z,34.83
2019-01-23T06:51:23.444Z,41.73
2019-01-23T06:54:05.649Z,36.47
2019-01-23T06:56:47.652Z,37.17
2019-01-23T06:59:26.906Z,33.37
2019-01-23T07:02:06.061Z,34.97
2019-01-23T07:04:46.093Z,36.43
2019-01-23T07:07:25.480Z,35.57
2019-01-23T07:10:07.593Z,35.67
2019-01-23T07:12:49.685Z,35.20
2019-01-23T07:15:31.709Z,33.33
2019-01-23T07:18:11.681Z,35.07
2019-01-23T07:20:50.782Z,34.20
2019-01-23T07:23:29.824Z,38.40
2019-01-23T07:26:11.817Z,35.73
2019-01-23T07:28:53.989Z,34.33
2019-01-23T07:31:33.207Z,34.90
2019-01-23T07:34:13.122Z,34.70
2019-01-23T07:36:55.172Z,34.83
2019-01-23T07:39:37.385Z,30.03
2019-01-23T07:42:37.335Z,33.73
2019-01-23T07:45:16.343Z,33.73
2019-01-23T07:47:56.285Z,33.03
2019-01-23T07:50:38.419Z,34.20
2019-01-23T07:53:17.500Z,32.17
2019-01-23T07:56:16.613Z,33.97
2019-01-23T07:58:58.863Z,32.97
2019-01-23T08:01:58.127Z,33.83
2019-01-23T08:04:40.085Z,34.77
2019-01-23T08:07:22.163Z,33.53
2019-01-23T08:10:02.203Z,32.83
2019-01-23T08:12:42.532Z,31.70
2019-01-23T08:15:45.863Z,33.23
2019-01-23T08:18:27.908Z,33.37
2019-01-23T08:21:07.865Z,34.97
2019-01-23T08:23:47.824Z,33.20
2019-01-23T08:26:29.983Z,32.70
2019-01-23T08:29:12.065Z,30.70
2019-01-23T08:31:54.124Z,31.43
2019-01-23T08:34:33.207Z,31.93
2019-01-23T08:37:12.328Z,30.60
2019-01-23T08:39:51.555Z,32.37
2019-01-23T08:42:30.716Z,32.23
2019-01-23T08:45:09.775Z,33.43
2019-01-23T08:48:08.977Z,31.83
2019-01-23T08:51:08.364Z,29.73
2019-01-23T08:53:48.250Z,30.97
2019-01-23T08:56:48.348Z,28.77
2019-01-23T08:59:47.583Z,29.37
2019-01-23T09:02:46.890Z,30.60
2019-01-23T09:05:29.241Z,30.47
2019-01-23T09:08:09.205Z,28.70
2019-01-23T09:11:08.606Z,28.07
2019-01-23T09:14:07.895Z,28.77
2019-01-23T09:16:47.850Z,28.67
2019-01-23T09:19:29.909Z,29.27
2019-01-23T09:22:11.990Z,30.03
2019-01-23T09:24:51.944Z,30.03
2019-01-23T09:27:34.296Z,29.43
2019-01-23T09:30:16.342Z,30.63
2019-01-23T09:33:15.488Z,28.53
2019-01-23T09:35:57.745Z,30.00
2019-01-23T09:38:39.841Z,29.30
2019-01-23T09:41:21.996Z,29.63
2019-01-23T09:44:01.190Z,26.87
2019-01-23T09:47:00.486Z,29.50
2019-01-23T09:49:44.227Z,29.87
2019-01-23T09:52:24.044Z,27.93
2019-01-23T09:55:03.457Z,30.73
2019-01-23T09:57:43.496Z,28.73
2019-01-23T10:00:23.508Z,28.93
2019-01-23T10:03:23.072Z,27.80
2019-01-23T10:06:02.935Z,27.43
2019-01-23T10:08:42.651Z,30.00
2019-01-23T10:11:41.987Z,27.97
2019-01-23T10:14:21.222Z,27.27
2019-01-23T10:17:01.277Z,29.37
2019-01-23T10:19:43.588Z,27.13
2019-01-23T10:22:23.594Z,30.83
2019-01-23T10:25:05.603Z,27.53
2019-01-23T10:27:47.871Z,30.57
2019-01-23T10:30:27.794Z,31.77
2019-01-23T10:33:26.929Z,30.53
2019-01-23T10:36:09.172Z,29.27
2019-01-23T10:38:51.252Z,29.13
2019-01-23T10:41:50.567Z,26.37
2019-01-23T10:44:32.618Z,28.07
2019-01-23T10:47:14.799Z,27.83
2019-01-23T10:49:57.028Z,29.83
2019-01-23T10:52:57.059Z,30.23
2019-01-23T10:55:39.190Z,29.13
2019-01-23T10:58:18.261Z,31.20
2019-01-23T11:00:57.368Z,28.17
2019-01-23T11:03:37.414Z,30.73
2019-01-23T11:06:17.351Z,29.37
2019-01-23T11:08:59.636Z,29.77
2019-01-23T11:11:59.028Z,27.17
2019-01-23T11:14:36.382Z,31.33
2019-01-23T11:17:22.440Z,28.93
2019-01-23T11:20:01.596Z,32.83
2019-01-23T11:22:40.642Z,31.17
2019-01-23T11:25:39.911Z,28.83
2019-01-23T11:28:39.098Z,32.43
2019-01-23T11:31:20.505Z,30.27
2019-01-23T11:34:20.400Z,31.87
2019-01-23T11:37:20.304Z,28.77
2019-01-23T11:40:02.552Z,29.40
2019-01-23T11:42:47.832Z,30.03
2019-01-23T11:45:46.970Z,32.10
2019-01-23T11:48:46.313Z,30.53
2019-01-23T11:51:45.582Z,28.93
2019-01-23T11:54:44.866Z,28.50
2019-01-23T11:57:26.790Z,30.67
2019-01-23T12:00:05.961Z,31.90
2019-01-23T12:02:45.991Z,28.10
2019-01-23T12:05:26.041Z,30.33
2019-01-23T12:08:06.062Z,28.13
2019-01-23T12:11:05.434Z,31.13
2019-01-23T12:13:44.620Z,29.17
2019-01-23T12:16:23.818Z,29.37
2019-01-23T12:19:08.785Z,29.40
2019-01-23T12:21:49.004Z,30.13
2019-01-23T12:24:30.896Z,29.97
2019-01-23T12:27:10.095Z,29.53
2019-01-23T12:29:49.403Z,29.50
2019-01-23T12:32:31.430Z,29.13
2019-01-23T12:35:14.289Z,29.63
2019-01-23T12:37:53.421Z,30.37
2019-01-23T12:40:33.332Z,28.77
2019-01-23T12:43:15.347Z,28.67
2019-01-23T12:45:57.524Z,32.33
2019-01-23T12:48:36.610Z,29.63
2019-01-23T12:51:16.658Z,36.00
2019-01-23T12:53:55.877Z,32.60
2019-01-23T12:56:35.873Z,30.53
2019-01-23T12:59:14.960Z,28.50
2019-01-23T13:01:56.968Z,29.17
2019-01-23T13:04:34.182Z,29.40
2019-01-23T13:07:20.232Z,28.20
2019-01-23T13:10:00.044Z,27.73
2019-01-23T13:12:42.657Z,25.77
2019-01-23T13:15:22.759Z,27.67
2019-01-23T13:18:02.881Z,27.97
2019-01-23T13:20:42.974Z,26.97
2019-01-23T13:23:22.194Z,27.20
2019-01-23T13:26:01.538Z,27.80
2019-01-23T13:28:40.792Z,29.13
2019-01-23T13:31:19.911Z,27.50
2019-01-23T13:33:59.228Z,26.77
2019-01-23T13:36:38.452Z,27.73
2019-01-23T13:42:07.549Z,29.33
2019-01-23T13:44:46.670Z,29.03
2019-01-23T13:47:28.776Z,31.13
2019-01-23T13:50:27.865Z,26.93
2019-01-23T13:53:09.893Z,28.93
2019-01-23T13:55:49.323Z,29.97
2019-01-23T13:58:31.489Z,31.77
2019-01-23T14:01:13.619Z,35.03
2019-01-23T14:03:55.837Z,29.33
2019-01-23T14:06:22.004Z,30.73
2019-01-23T14:09:08.059Z,30.80
2019-01-23T14:11:48.000Z,31.40
2019-01-23T14:14:28.089Z,38.00
2019-01-23T14:17:07.202Z,30.93
2019-01-23T14:19:49.443Z,31.03
2019-01-23T14:22:48.881Z,29.00
2019-01-23T14:25:28.637Z,27.60
2019-01-23T14:28:11.115Z,30.57
2019-01-23T14:30:51.054Z,27.50
2019-01-23T14:33:33.168Z,30.10
2019-01-23T14:36:12.442Z,30.67
2019-01-23T14:38:51.619Z,32.57
2019-01-23T14:41:30.836Z,32.37
2019-01-23T14:44:10.897Z,30.63
2019-01-23T14:46:50.047Z,28.30
2019-01-23T14:49:30.121Z,32.47
2019-01-23T14:52:09.222Z,30.63
2019-01-23T14:54:48.441Z,28.73
2019-01-23T14:57:28.531Z,29.70
2019-01-23T15:00:08.507Z,30.60
2019-01-23T15:03:07.833Z,29.10
2019-01-23T15:06:06.994Z,27.93
2019-01-23T15:09:06.229Z,28.80
2019-01-23T15:11:48.087Z,28.97
2019-01-23T15:14:30.389Z,30.63
2019-01-23T15:17:12.513Z,28.97
2019-01-23T15:19:54.719Z,29.00
2019-01-23T15:22:37.079Z,29.10
2019-01-23T15:25:19.114Z,31.13
2019-01-23T15:28:01.266Z,30.50
2019-01-23T15:30:40.585Z,30.83
2019-01-23T15:33:22.679Z,30.00
2019-01-23T15:36:02.777Z,30.53
2019-01-23T15:38:42.611Z,30.30
2019-01-23T15:41:41.761Z,31.53
2019-01-23T15:44:23.988Z,30.23
2019-01-23T15:47:23.120Z,31.77
2019-01-23T15:50:05.156Z,31.87
2019-01-23T15:53:04.338Z,33.43
2019-01-23T15:55:46.520Z,31.93
2019-01-23T15:58:45.678Z,30.30
2019-01-23T16:01:44.983Z,30.03
2019-01-23T16:04:27.118Z,30.30
2019-01-23T16:07:26.145Z,30.10
2019-01-23T16:10:08.264Z,31.90
2019-01-23T16:12:50.364Z,32.90
2019-01-23T16:15:33.907Z,32.10
2019-01-23T16:18:13.423Z,31.10
2019-01-23T16:20:53.484Z,31.30
2019-01-23T16:23:32.557Z,32.17
2019-01-23T16:26:31.888Z,31.70
2019-01-23T16:29:11.029Z,31.37
2019-01-23T16:31:50.346Z,30.27
2019-01-23T16:34:29.714Z,32.80
2019-01-23T16:37:11.627Z,33.03
2019-01-23T16:39:53.636Z,31.67
2019-01-23T16:42:32.825Z,34.13
2019-01-23T16:45:12.899Z,33.83
2019-01-23T16:47:52.071Z,34.27
2019-01-23T16:50:31.950Z,33.97
2019-01-23T16:53:11.938Z,34.93
2019-01-23T16:55:53.996Z,32.27
2019-01-23T16:58:36.207Z,33.90
2019-01-23T17:01:18.353Z,31.70
2019-01-23T17:04:00.513Z,32.70
2019-01-23T17:06:59.752Z,31.37
2019-01-23T17:09:41.799Z,30.83
2019-01-23T17:12:23.729Z,34.17
2019-01-23T17:15:03.467Z,30.90
2019-01-23T17:17:45.611Z,33.60
2019-01-23T17:20:45.119Z,32.77
2019-01-23T17:23:24.906Z,33.57
2019-01-23T17:26:24.251Z,33.53
2019-01-23T17:29:04.198Z,30.07
2019-01-23T17:31:46.391Z,29.83
2019-01-23T17:34:28.706Z,32.70
2019-01-23T17:37:28.034Z,32.43
2019-01-23T17:40:07.998Z,31.87
2019-01-23T17:43:07.393Z,32.43
2019-01-23T17:45:47.443Z,31.70
2019-01-23T17:48:29.692Z,31.63
2019-01-23T17:51:28.852Z,30.33
2019-01-23T17:54:14.118Z,32.07
2019-01-23T17:57:11.558Z,31.40
2019-01-23T18:00:14.611Z,32.27
2019-01-23T18:03:13.724Z,30.60
2019-01-23T18:06:12.998Z,30.73
2019-01-23T18:09:12.285Z,30.43
2019-01-23T18:12:11.551Z,27.67
2019-01-23T18:15:10.941Z,31.83
2019-01-23T18:18:10.247Z,30.33
2019-01-23T18:21:40.792Z,30.10
2019-01-23T18:25:07.414Z,30.73
2019-01-23T18:28:27.233Z,32.50
2019-01-23T18:31:26.610Z,34.57
2019-01-23T18:34:25.833Z,35.13
2019-01-23T18:37:25.251Z,33.20
2019-01-23T18:40:24.407Z,32.70
2019-01-23T18:43:23.862Z,31.13
2019-01-23T18:46:26.123Z,30.30
2019-01-23T18:49:28.297Z,29.93
2019-01-23T18:52:27.538Z,30.57
2019-01-23T18:55:26.771Z,28.83
2019-01-23T18:58:26.024Z,30.27
2019-01-23T19:01:28.229Z,30.87
2019-01-23T19:04:27.660Z,29.83
2019-01-23T19:07:29.707Z,31.20
2019-01-23T19:10:31.974Z,30.50
2019-01-23T19:13:34.256Z,28.53
2019-01-23T19:16:54.039Z,28.13
2019-01-23T19:19:53.270Z,30.20
2019-01-23T19:22:52.560Z,29.37
2019-01-23T19:25:55.221Z,29.07
2019-01-23T19:28:54.717Z,30.87
2019-01-23T19:31:55.433Z,29.60
2019-01-23T19:35:15.250Z,29.23
2019-01-23T19:38:14.472Z,28.30
2019-01-23T19:41:20.067Z,30.33
2019-01-23T19:44:15.164Z,28.40
2019-01-23T19:47:17.421Z,29.83
2019-01-23T19:50:19.994Z,27.83
2019-01-23T19:53:19.548Z,29.67
2019-01-23T19:56:18.747Z,27.17
2019-01-23T19:59:18.194Z,27.07
2019-01-23T20:02:20.373Z,29.27
2019-01-23T20:05:22.460Z,26.23
2019-01-23T20:08:22.024Z,28.90
2019-01-23T20:11:24.260Z,28.60
2019-01-23T20:14:43.719Z,27.13
2019-01-23T20:17:43.149Z,29.03
2019-01-23T20:20:42.695Z,30.10
2019-01-23T20:23:45.096Z,28.23
2019-01-23T20:27:04.523Z,27.83
2019-01-23T20:30:03.970Z,28.73
2019-01-23T20:33:03.165Z,27.30
2019-01-23T20:36:02.633Z,30.70
2019-01-23T20:39:02.249Z,28.80
2019-01-23T20:42:21.543Z,28.70
2019-01-23T20:45:21.060Z,30.90
2019-01-23T20:48:20.566Z,31.03
2019-01-23T20:51:42.642Z,30.70
2019-01-23T20:54:41.945Z,30.20
2019-01-23T20:57:41.155Z,31.83
2019-01-23T21:00:43.185Z,31.13
2019-01-23T21:03:42.608Z,33.13
2019-01-23T21:06:42.231Z,28.70
2019-01-23T21:10:01.608Z,36.00
2019-01-23T21:13:23.805Z,31.67
2019-01-23T21:16:26.091Z,31.70
2019-01-23T21:19:28.543Z,31.47
2019-01-23T21:22:30.645Z,30.83
2019-01-23T21:25:32.861Z,32.23
2019-01-23T21:28:56.181Z,29.57
2019-01-23T21:31:58.535Z,31.77
2019-01-23T21:35:18.143Z,34.13
2019-01-23T21:38:17.355Z,30.47
2019-01-23T21:41:16.640Z,31.33
2019-01-23T21:44:16.279Z,36.70
2019-01-23T21:47:15.619Z,30.97
2019-01-23T21:50:15.020Z,28.70
2019-01-23T21:53:14.440Z,29.17
2019-01-23T21:56:16.775Z,32.00
2019-01-23T21:59:19.193Z,30.60
2019-01-23T22:02:38.591Z,30.97
2019-01-23T22:05:38.052Z,29.83
2019-01-23T22:08:37.511Z,29.50
2019-01-23T22:11:43.245Z,31.43
2019-01-23T22:14:58.004Z,31.07
2019-01-23T22:17:57.210Z,30.93
2019-01-23T22:20:56.548Z,30.53
2019-01-23T22:23:55.967Z,29.60
2019-01-23T22:26:55.445Z,31.47
2019-01-23T22:29:54.482Z,34.13
2019-01-23T22:32:53.900Z,29.77
2019-01-23T22:35:53.470Z,31.30
2019-01-23T22:38:55.530Z,30.93
2019-01-23T22:41:57.810Z,30.73
2019-01-23T22:44:57.298Z,32.50
2019-01-23T22:47:56.595Z,32.13
2019-01-23T22:50:55.848Z,31.50
2019-01-23T22:53:53.563Z,31.63
2019-01-23T22:56:53.232Z,32.43
2019-01-23T22:59:52.696Z,32.93
2019-01-23T23:02:52.100Z,32.83
2019-01-23T23:05:54.596Z,33.00
2019-01-23T23:08:53.977Z,33.37
2019-01-23T23:11:53.293Z,33.13
2019-01-23T23:14:52.586Z,36.97
2019-01-23T23:17:51.975Z,33.60
2019-01-23T23:20:51.371Z,37.90
2019-01-23T23:23:53.685Z,35.90
2019-01-23T23:26:55.974Z,35.53
2019-01-23T23:29:57.711Z,34.57
2019-01-23T23:32:56.903Z,35.30
2019-01-23T23:35:56.108Z,36.43
2019-01-23T23:38:55.194Z,36.33
2019-01-23T23:41:57.837Z,34.33
2019-01-23T23:44:57.222Z,36.90
2019-01-23T23:47:56.428Z,35.93
2019-01-23T23:50:58.667Z,35.43
2019-01-23T23:53:58.135Z,37.70
2019-01-23T23:57:00.448Z,36.03
